createdAt,value
2023-04-19T00:01:16.939Z,102960.31
2023-04-19T00:03:43.592Z,102954.63
2023-04-19T00:06:10.294Z,102956.41
2023-04-19T00:08:36.699Z,102946.28
2023-04-19T00:11:03.146Z,102950.31
2023-04-19T00:13:29.537Z,102943.59
2023-04-19T00:15:55.887Z,102936.75
2023-04-19T00:18:22.280Z,102937.94
2023-04-19T00:20:48.798Z,102948.66
2023-04-19T00:23:15.291Z,102944.72
2023-04-19T00:25:41.734Z,102942.34
2023-04-19T00:28:08.187Z,102943.59
2023-04-19T00:30:34.669Z,102935.63
2023-04-19T00:33:01.324Z,102936.59
2023-04-19T00:35:27.766Z,102936.56
2023-04-19T00:37:54.239Z,102940.09
2023-04-19T00:40:20.678Z,102935.59
2023-04-19T00:42:47.082Z,102937.84
2023-04-19T00:45:14.473Z,102938.34
2023-04-19T00:47:41.350Z,102931.53
2023-04-19T00:50:08.390Z,102936.22
2023-04-19T00:52:34.886Z,102939.56
2023-04-19T00:55:01.567Z,102924.88
2023-04-19T00:57:28.532Z,102927.31
2023-04-19T00:59:55.453Z,102923.38
2023-04-19T01:02:22.379Z,102928.34
2023-04-19T01:04:49.016Z,102932.63
2023-04-19T01:07:15.569Z,102925.38
2023-04-19T01:09:43.872Z,102931.91
2023-04-19T01:12:10.295Z,102919.63
2023-04-19T01:14:36.660Z,102927.94
2023-04-19T01:17:03.050Z,102926.28
2023-04-19T01:19:29.529Z,102928.78
2023-04-19T01:21:58.235Z,102919.19
2023-04-19T01:24:24.662Z,102913.94
2023-04-19T01:26:51.301Z,102927.31
2023-04-19T01:29:18.721Z,102924.06
2023-04-19T01:31:49.161Z,102931.16
2023-04-19T01:34:15.751Z,102926.50
2023-04-19T01:36:42.206Z,102929.19
2023-04-19T01:39:08.538Z,102931.13
2023-04-19T01:41:34.855Z,102936.91
2023-04-19T01:44:01.355Z,102917.34
2023-04-19T01:46:27.661Z,102918.09
2023-04-19T01:48:54.026Z,102920.38
2023-04-19T01:51:21.756Z,102919.59
2023-04-19T01:53:53.402Z,102920.28
2023-04-19T01:56:19.930Z,102922.28
2023-04-19T01:58:46.248Z,102918.06
2023-04-19T02:01:13.043Z,102921.56
2023-04-19T02:03:39.710Z,102926.94
2023-04-19T02:06:06.106Z,102920.59
2023-04-19T02:08:32.437Z,102923.84
2023-04-19T02:10:58.704Z,102921.94
2023-04-19T02:13:25.113Z,102925.75
2023-04-19T02:15:51.575Z,102932.66
2023-04-19T02:18:18.411Z,102919.66
2023-04-19T02:20:44.698Z,102919.28
2023-04-19T02:23:10.998Z,102921.84
2023-04-19T02:25:37.320Z,102911.22
2023-04-19T02:28:03.643Z,102917.38
2023-04-19T02:30:29.972Z,102908.06
2023-04-19T02:32:56.323Z,102912.72
2023-04-19T02:35:23.001Z,102923.47
2023-04-19T02:37:49.313Z,102923.31
2023-04-19T02:40:16.022Z,102914.66
2023-04-19T02:42:42.358Z,102922.34
2023-04-19T02:45:08.957Z,102923.47
2023-04-19T02:47:35.375Z,102921.94
2023-04-19T02:50:01.813Z,102918.09
2023-04-19T02:52:28.116Z,102911.22
2023-04-19T02:54:54.407Z,102919.25
2023-04-19T02:57:20.967Z,102919.59
2023-04-19T02:59:47.259Z,102919.66
2023-04-19T03:02:13.592Z,102917.34
2023-04-19T03:04:40.001Z,102916.56
2023-04-19T03:07:06.868Z,102903.38
2023-04-19T03:09:33.291Z,102918.47
2023-04-19T03:11:59.684Z,102916.28
2023-04-19T03:14:26.150Z,102907.13
2023-04-19T03:16:52.463Z,102914.56
2023-04-19T03:19:19.843Z,102905.25
2023-04-19T03:21:46.500Z,102904.84
2023-04-19T03:24:13.128Z,102906.56
2023-04-19T03:26:39.609Z,102910.19
2023-04-19T03:29:06.130Z,102904.16
2023-04-19T03:31:32.831Z,102900.31
2023-04-19T03:33:59.314Z,102907.00
2023-04-19T03:36:26.829Z,102899.72
2023-04-19T03:38:53.223Z,102903.50
2023-04-19T03:41:20.804Z,102894.88
2023-04-19T03:43:47.567Z,102894.19
2023-04-19T03:46:13.943Z,102902.91
2023-04-19T03:48:40.733Z,102903.22
2023-04-19T03:51:07.454Z,102898.34
2023-04-19T03:53:33.975Z,102901.41
2023-04-19T03:56:00.846Z,102904.81
2023-04-19T03:58:27.287Z,102910.22
2023-04-19T04:00:53.658Z,102906.84
2023-04-19T04:03:20.506Z,102899.63
2023-04-19T04:05:47.058Z,102898.50
2023-04-19T04:08:14.045Z,102899.75
2023-04-19T04:10:40.450Z,102896.88
2023-04-19T04:13:06.864Z,102901.88
2023-04-19T04:15:33.485Z,102898.09
2023-04-19T04:17:59.940Z,102902.88
2023-04-19T04:20:26.450Z,102897.53
2023-04-19T04:22:52.901Z,102903.06
2023-04-19T04:25:21.200Z,102905.38
2023-04-19T04:27:51.964Z,102904.41
2023-04-19T04:30:18.435Z,102898.94
2023-04-19T04:32:46.936Z,102904.03
2023-04-19T04:35:13.389Z,102891.13
2023-04-19T04:37:40.318Z,102897.28
2023-04-19T04:40:08.100Z,102903.16
2023-04-19T04:42:35.541Z,102899.09
2023-04-19T04:45:02.131Z,102901.84
2023-04-19T04:47:32.520Z,102895.34
2023-04-19T04:49:59.725Z,102905.06
2023-04-19T04:52:26.209Z,102905.38
2023-04-19T04:54:52.705Z,102897.91
2023-04-19T04:57:19.622Z,102903.25
2023-04-19T04:59:48.972Z,102904.81
2023-04-19T05:02:15.718Z,102905.00
2023-04-19T05:04:42.695Z,102893.28
2023-04-19T05:07:09.513Z,102900.56
2023-04-19T05:09:35.990Z,102902.50
2023-04-19T05:12:02.653Z,102898.16
2023-04-19T05:14:29.090Z,102896.38
2023-04-19T05:16:55.451Z,102895.88
2023-04-19T05:19:21.962Z,102896.91
2023-04-19T05:21:48.469Z,102897.06
2023-04-19T05:24:15.235Z,102899.94
2023-04-19T05:26:41.842Z,102897.13
2023-04-19T05:29:08.299Z,102895.25
2023-04-19T05:31:34.769Z,102899.91
2023-04-19T05:34:01.270Z,102895.16
2023-04-19T05:36:28.328Z,102898.84
2023-04-19T05:38:54.900Z,102901.56
2023-04-19T05:41:21.370Z,102899.94
2023-04-19T05:43:47.980Z,102898.97
2023-04-19T05:46:14.445Z,102891.13
2023-04-19T05:48:40.883Z,102907.44
2023-04-19T05:51:07.238Z,102902.97
2023-04-19T05:53:33.630Z,102900.56
2023-04-19T05:56:00.185Z,102904.81
2023-04-19T05:58:27.205Z,102900.69
2023-04-19T06:00:53.707Z,102900.81
2023-04-19T06:03:20.394Z,102902.38
2023-04-19T06:05:47.058Z,102895.53
2023-04-19T06:08:16.412Z,102896.94
2023-04-19T06:10:53.202Z,102895.00
2023-04-19T06:13:22.489Z,102895.88
2023-04-19T06:15:49.135Z,102894.72
2023-04-19T06:18:19.710Z,102898.75
2023-04-19T06:20:46.776Z,102898.22
2023-04-19T06:23:14.704Z,102893.19
2023-04-19T06:25:41.237Z,102907.06
2023-04-19T06:28:07.703Z,102905.22
2023-04-19T06:30:34.186Z,102906.97
2023-04-19T06:33:00.936Z,102907.06
2023-04-19T06:35:27.685Z,102908.47
2023-04-19T06:37:54.176Z,102895.34
2023-04-19T06:40:20.825Z,102910.97
2023-04-19T06:42:47.202Z,102913.03
2023-04-19T06:45:15.121Z,102898.09
2023-04-19T06:47:41.790Z,102896.81
2023-04-19T06:50:08.891Z,102906.59
2023-04-19T06:52:35.317Z,102903.13
2023-04-19T06:55:01.741Z,102899.13
2023-04-19T06:57:28.138Z,102896.16
2023-04-19T06:59:55.195Z,102890.03
2023-04-19T07:02:21.989Z,102900.28
2023-04-19T07:04:48.682Z,102912.25
2023-04-19T07:07:15.185Z,102898.00
2023-04-19T07:09:41.603Z,102905.84
2023-04-19T07:12:08.109Z,102888.81
2023-04-19T07:14:34.512Z,102897.25
2023-04-19T07:17:00.949Z,102893.44
2023-04-19T07:19:29.006Z,102897.34
2023-04-19T07:21:55.581Z,102893.94
2023-04-19T07:24:22.296Z,102884.72
2023-04-19T07:26:48.704Z,102892.78
2023-04-19T07:29:15.180Z,102885.88
2023-04-19T07:31:42.055Z,102890.78
2023-04-19T07:34:08.903Z,102878.25
2023-04-19T07:36:36.944Z,102887.22
2023-04-19T07:39:04.764Z,102884.31
2023-04-19T07:41:32.339Z,102891.78
2023-04-19T07:43:58.806Z,102884.75
2023-04-19T07:46:25.407Z,102882.66
2023-04-19T07:48:51.981Z,102868.28
2023-04-19T07:51:19.342Z,102868.59
2023-04-19T07:53:47.647Z,102864.28
2023-04-19T07:56:15.721Z,102871.59
2023-04-19T07:58:42.322Z,102867.16
2023-04-19T08:01:09.408Z,102871.34
2023-04-19T08:03:36.899Z,102866.22
2023-04-19T08:06:05.547Z,102870.13
2023-04-19T08:08:33.993Z,102853.34
2023-04-19T08:11:02.317Z,102869.09
2023-04-19T08:13:29.542Z,102854.47
2023-04-19T08:18:25.521Z,102840.56
2023-04-19T08:20:52.005Z,102847.03
2023-04-19T08:23:24.165Z,102835.66
2023-04-19T08:25:52.344Z,102837.00
2023-04-19T08:28:19.161Z,102832.94
2023-04-19T08:30:45.695Z,102850.28
2023-04-19T08:33:12.729Z,102830.13
2023-04-19T08:35:41.336Z,102831.69
2023-04-19T08:38:08.560Z,102828.88
2023-04-19T08:40:34.879Z,102822.13
2023-04-19T08:43:05.081Z,102809.03
2023-04-19T08:45:31.385Z,102833.88
2023-04-19T08:48:01.423Z,102826.94
2023-04-19T08:50:34.578Z,102831.50
2023-04-19T08:53:23.954Z,102818.00
2023-04-19T08:56:08.836Z,102830.47
2023-04-19T08:58:54.834Z,102811.53
2023-04-19T09:01:33.917Z,102809.13
2023-04-19T09:04:17.006Z,102815.72
2023-04-19T09:06:48.240Z,102828.03
2023-04-19T09:09:33.158Z,102827.88
2023-04-19T09:12:02.208Z,102816.78
2023-04-19T09:14:29.176Z,102797.69
2023-04-19T09:17:11.519Z,102804.00
2023-04-19T09:19:47.896Z,102810.00
2023-04-19T09:22:14.799Z,102798.50
2023-04-19T09:27:13.504Z,102772.84
2023-04-19T09:29:40.002Z,102781.28
2023-04-19T09:32:06.489Z,102795.75
2023-04-19T09:34:32.938Z,102772.94
2023-04-19T09:37:15.165Z,102770.72
2023-04-19T09:39:54.584Z,102771.84
2023-04-19T09:42:42.208Z,102771.03
2023-04-19T09:47:36.990Z,102762.03
2023-04-19T09:50:21.755Z,102751.97
2023-04-19T09:52:50.592Z,102747.09
2023-04-19T09:55:26.653Z,102733.69
2023-04-19T09:57:54.586Z,102742.72
2023-04-19T10:00:23.877Z,102734.22
2023-04-19T10:02:55.690Z,102731.78
2023-04-19T10:05:23.067Z,102717.06
2023-04-19T10:07:50.333Z,102726.47
2023-04-19T10:10:20.790Z,102736.56
2023-04-19T10:15:22.121Z,102713.47
2023-04-19T10:17:48.904Z,102717.69
2023-04-19T10:20:21.770Z,102708.81
2023-04-19T10:22:48.909Z,102710.13
2023-04-19T10:25:16.864Z,102694.00
2023-04-19T10:27:48.940Z,102687.88
2023-04-19T10:30:20.606Z,102705.50
2023-04-19T10:32:53.387Z,102678.88
2023-04-19T10:35:24.647Z,102675.34
2023-04-19T10:38:07.025Z,102684.75
2023-04-19T10:40:59.028Z,102675.09
2023-04-19T10:43:26.740Z,102683.75
2023-04-19T10:45:53.450Z,102656.88
2023-04-19T10:48:35.475Z,102658.81
2023-04-19T10:51:19.045Z,102665.38
2023-04-19T10:53:54.544Z,102667.72
2023-04-19T10:56:32.721Z,102653.25
2023-04-19T10:59:02.181Z,102637.81
2023-04-19T11:01:45.316Z,102642.09
2023-04-19T11:04:31.023Z,102634.84
2023-04-19T11:07:05.405Z,102648.72
2023-04-19T11:09:42.129Z,102644.31
2023-04-19T11:12:11.976Z,102639.28
2023-04-19T11:14:42.677Z,102626.47
2023-04-19T11:17:17.376Z,102634.16
2023-04-19T11:20:08.405Z,102622.38
2023-04-19T11:22:37.189Z,102622.69
2023-04-19T11:25:06.564Z,102610.84
2023-04-19T11:27:34.332Z,102620.38
2023-04-19T11:30:21.443Z,102621.38
2023-04-19T11:32:48.280Z,102618.09
2023-04-19T11:35:14.951Z,102619.44
2023-04-19T11:37:41.254Z,102602.69
2023-04-19T11:40:08.816Z,102602.69
2023-04-19T11:42:35.814Z,102619.66
2023-04-19T11:45:02.401Z,102602.38
2023-04-19T11:47:29.019Z,102610.88
2023-04-19T11:49:56.490Z,102590.06
2023-04-19T11:52:25.135Z,102583.59
2023-04-19T11:54:54.643Z,102583.19
2023-04-19T11:57:28.601Z,102566.91
2023-04-19T12:00:12.173Z,102563.06
2023-04-19T12:02:44.022Z,102568.38
2023-04-19T12:05:12.169Z,102593.31
2023-04-19T12:08:09.542Z,102592.06
2023-04-19T12:10:36.291Z,102596.13
2023-04-19T12:13:17.605Z,102572.91
2023-04-19T12:15:45.064Z,102572.56
2023-04-19T12:18:11.708Z,102572.38
2023-04-19T12:20:43.561Z,102567.81
2023-04-19T12:23:13.782Z,102586.94
2023-04-19T12:25:40.793Z,102590.53
2023-04-19T12:28:07.152Z,102560.47
2023-04-19T12:30:35.062Z,102555.22
2023-04-19T12:33:01.757Z,102572.44
2023-04-19T12:35:28.745Z,102553.63
2023-04-19T12:37:57.413Z,102552.44
2023-04-19T12:40:24.184Z,102553.34
2023-04-19T12:42:51.030Z,102541.63
2023-04-19T12:45:17.705Z,102580.13
2023-04-19T12:47:45.208Z,102561.72
2023-04-19T12:50:12.379Z,102556.00
2023-04-19T12:52:39.062Z,102561.72
2023-04-19T12:55:06.348Z,102556.31
2023-04-19T12:57:32.804Z,102536.44
2023-04-19T12:59:59.502Z,102551.59
2023-04-19T13:02:26.093Z,102532.59
2023-04-19T13:04:52.903Z,102558.13
2023-04-19T13:07:19.363Z,102548.22
2023-04-19T13:09:45.767Z,102534.47
2023-04-19T13:12:12.353Z,102534.69
2023-04-19T13:14:38.766Z,102537.81
2023-04-19T13:17:05.519Z,102543.13
2023-04-19T13:19:31.932Z,102529.44
2023-04-19T13:21:58.438Z,102518.44
2023-04-19T13:24:24.921Z,102498.03
2023-04-19T13:26:51.594Z,102517.75
2023-04-19T13:29:18.050Z,102518.19
2023-04-19T13:31:45.163Z,102515.25
2023-04-19T13:34:11.691Z,102498.44
2023-04-19T13:36:48.870Z,102514.06
2023-04-19T13:39:15.875Z,102496.28
2023-04-19T13:41:42.316Z,102513.22
2023-04-19T13:44:08.827Z,102504.75
2023-04-19T13:46:35.316Z,102498.50
2023-04-19T13:49:01.862Z,102489.13
2023-04-19T13:51:38.761Z,102501.75
2023-04-19T13:54:13.728Z,102491.75
2023-04-19T13:56:40.423Z,102489.09
2023-04-19T13:59:07.091Z,102498.06
2023-04-19T14:01:33.716Z,102497.94
2023-04-19T14:04:00.309Z,102514.13
2023-04-19T14:06:26.859Z,102504.50
2023-04-19T14:08:53.464Z,102491.53
2023-04-19T14:11:20.668Z,102500.53
2023-04-19T14:13:48.288Z,102514.50
2023-04-19T14:16:14.879Z,102481.09
2023-04-19T14:18:41.569Z,102477.03
2023-04-19T14:21:08.021Z,102494.28
2023-04-19T14:23:34.701Z,102514.88
2023-04-19T14:26:01.419Z,102499.13
2023-04-19T14:28:27.788Z,102491.91
2023-04-19T14:30:54.221Z,102495.28
2023-04-19T14:33:20.871Z,102501.84
2023-04-19T14:35:47.381Z,102483.28
2023-04-19T14:38:13.868Z,102483.06
2023-04-19T14:40:40.327Z,102455.72
2023-04-19T14:43:06.759Z,102462.59
2023-04-19T14:45:33.231Z,102485.75
2023-04-19T14:47:59.756Z,102477.69
2023-04-19T14:50:26.840Z,102461.66
2023-04-19T14:52:54.632Z,102458.50
2023-04-19T14:55:22.655Z,102459.31
2023-04-19T14:57:49.150Z,102471.22
2023-04-19T15:00:16.389Z,102453.03
2023-04-19T15:02:43.011Z,102455.16
2023-04-19T15:05:10.029Z,102444.97
2023-04-19T15:07:36.640Z,102425.50
2023-04-19T15:10:03.686Z,102454.53
2023-04-19T15:12:30.114Z,102450.72
2023-04-19T15:14:56.553Z,102460.50
2023-04-19T15:17:23.000Z,102464.03
2023-04-19T15:19:49.453Z,102431.50
2023-04-19T15:22:15.869Z,102457.38
2023-04-19T15:24:42.363Z,102423.38
2023-04-19T15:27:09.138Z,102440.56
2023-04-19T15:29:35.774Z,102433.91
2023-04-19T15:32:02.820Z,102438.38
2023-04-19T15:34:29.219Z,102448.94
2023-04-19T15:36:55.805Z,102454.66
2023-04-19T15:39:22.234Z,102446.06
2023-04-19T15:41:49.320Z,102446.06
2023-04-19T15:44:15.835Z,102456.00
2023-04-19T15:46:42.339Z,102453.91
2023-04-19T15:49:08.841Z,102473.66
2023-04-19T15:51:35.258Z,102441.81
2023-04-19T15:54:01.713Z,102453.31
2023-04-19T15:56:28.080Z,102445.59
2023-04-19T15:58:54.745Z,102454.50
2023-04-19T16:01:22.841Z,102452.59
2023-04-19T16:03:49.464Z,102421.59
2023-04-19T16:06:16.174Z,102449.50
2023-04-19T16:08:42.797Z,102441.44
2023-04-19T16:11:09.370Z,102473.66
2023-04-19T16:13:35.901Z,102464.13
2023-04-19T16:16:02.436Z,102457.63
2023-04-19T16:18:28.997Z,102462.19
2023-04-19T16:20:55.878Z,102483.59
2023-04-19T16:23:24.203Z,102464.56
2023-04-19T16:25:50.834Z,102469.91
2023-04-19T16:28:18.411Z,102464.22
2023-04-19T16:30:45.915Z,102465.41
2023-04-19T16:33:12.411Z,102459.03
2023-04-19T16:35:39.009Z,102455.53
2023-04-19T16:38:06.925Z,102470.00
2023-04-19T16:40:33.344Z,102454.53
2023-04-19T16:43:02.477Z,102464.88
2023-04-19T16:45:29.049Z,102480.38
2023-04-19T16:47:55.984Z,102453.25
2023-04-19T16:50:22.418Z,102460.47
2023-04-19T16:52:48.885Z,102454.97
2023-04-19T16:55:15.706Z,102462.47
2023-04-19T16:57:42.204Z,102459.00
2023-04-19T17:00:09.880Z,102455.03
2023-04-19T17:02:36.454Z,102439.72
2023-04-19T17:05:03.160Z,102452.94
2023-04-19T17:07:29.755Z,102453.00
2023-04-19T17:09:56.446Z,102454.56
2023-04-19T17:12:23.309Z,102447.72
2023-04-19T17:14:50.084Z,102447.41
2023-04-19T17:17:19.083Z,102446.91
2023-04-19T17:19:45.697Z,102435.81
2023-04-19T17:22:14.558Z,102440.78
2023-04-19T17:24:41.345Z,102455.25
2023-04-19T17:27:07.876Z,102447.78
2023-04-19T17:29:34.454Z,102439.09
2023-04-19T17:32:01.781Z,102453.28
2023-04-19T17:34:28.419Z,102446.22
2023-04-19T17:36:55.058Z,102437.41
2023-04-19T17:39:21.628Z,102444.72
2023-04-19T17:41:47.995Z,102445.81
2023-04-19T17:44:14.530Z,102449.31
2023-04-19T17:46:41.087Z,102451.00
2023-04-19T17:49:09.086Z,102437.66
2023-04-19T17:51:35.608Z,102447.34
2023-04-19T17:54:02.170Z,102438.31
2023-04-19T17:56:28.577Z,102431.69
2023-04-19T17:58:55.165Z,102432.09
2023-04-19T18:01:21.717Z,102432.53
2023-04-19T18:03:51.655Z,102433.47
2023-04-19T18:06:20.696Z,102434.81
2023-04-19T18:08:47.380Z,102442.16
2023-04-19T18:11:16.199Z,102437.47
2023-04-19T18:13:42.705Z,102430.72
2023-04-19T18:16:10.167Z,102425.94
2023-04-19T18:18:37.063Z,102429.28
2023-04-19T18:21:06.865Z,102434.22
2023-04-19T18:23:33.487Z,102437.88
2023-04-19T18:26:03.957Z,102427.41
2023-04-19T18:28:30.576Z,102441.13
2023-04-19T18:30:57.139Z,102432.84
2023-04-19T18:33:23.859Z,102430.84
2023-04-19T18:35:50.357Z,102441.81
2023-04-19T18:38:16.978Z,102437.75
2023-04-19T18:40:45.689Z,102438.75
2023-04-19T18:43:12.254Z,102443.91
2023-04-19T18:45:39.075Z,102449.09
2023-04-19T18:48:05.760Z,102445.03
2023-04-19T18:50:32.472Z,102450.22
2023-04-19T18:52:59.038Z,102450.34
2023-04-19T18:55:26.621Z,102452.22
2023-04-19T18:57:53.112Z,102451.84
2023-04-19T19:00:21.603Z,102461.63
2023-04-19T19:02:48.390Z,102458.13
2023-04-19T19:05:16.158Z,102460.56
2023-04-19T19:07:43.101Z,102465.56
2023-04-19T19:10:19.351Z,102466.00
2023-04-19T19:12:49.167Z,102479.44
2023-04-19T19:15:16.689Z,102476.66
2023-04-19T19:17:43.694Z,102473.53
2023-04-19T19:20:10.961Z,102470.97
2023-04-19T19:22:37.879Z,102472.66
2023-04-19T19:25:05.078Z,102477.56
2023-04-19T19:27:31.535Z,102472.06
2023-04-19T19:30:00.034Z,102456.75
2023-04-19T19:32:26.573Z,102457.47
2023-04-19T19:35:00.654Z,102471.13
2023-04-19T19:37:28.853Z,102465.78
2023-04-19T19:39:57.001Z,102463.31
2023-04-19T19:42:24.552Z,102465.06
2023-04-19T19:44:55.420Z,102453.53
2023-04-19T19:47:23.168Z,102447.00
2023-04-19T19:50:31.347Z,102450.38
2023-04-19T19:52:36.095Z,102451.00
2023-04-19T19:55:02.849Z,102450.59
2023-04-19T19:58:20.614Z,102446.84
2023-04-19T20:00:42.087Z,102445.34
2023-04-19T20:03:06.258Z,102445.56
2023-04-19T20:05:33.767Z,102441.22
2023-04-19T20:08:10.127Z,102440.13
2023-04-19T20:10:38.268Z,102433.81
2023-04-19T20:13:06.591Z,102424.03
2023-04-19T20:15:34.304Z,102428.25
2023-04-19T20:18:00.812Z,102429.59
2023-04-19T20:20:27.484Z,102417.03
2023-04-19T20:22:54.023Z,102412.00
2023-04-19T20:25:20.572Z,102402.88
2023-04-19T20:27:47.025Z,102400.97
2023-04-19T20:30:15.101Z,102402.63
2023-04-19T20:32:42.924Z,102411.56
2023-04-19T20:35:11.951Z,102405.81
2023-04-19T20:37:42.081Z,102406.94
2023-04-19T20:40:14.433Z,102408.25
2023-04-19T20:42:41.939Z,102394.91
2023-04-19T20:45:10.500Z,102401.59
2023-04-19T20:47:38.334Z,102390.84
2023-04-19T20:50:06.761Z,102391.88
2023-04-19T20:52:33.341Z,102391.06
2023-04-19T20:55:00.025Z,102390.50
2023-04-19T20:57:26.568Z,102392.16
2023-04-19T20:59:53.041Z,102386.53
2023-04-19T21:02:19.637Z,102383.44
2023-04-19T21:04:46.058Z,102391.47
2023-04-19T21:07:12.460Z,102385.44
2023-04-19T21:09:39.194Z,102376.78
2023-04-19T21:12:05.675Z,102384.19
2023-04-19T21:14:35.178Z,102377.31
2023-04-19T21:17:02.553Z,102382.72
2023-04-19T21:19:29.432Z,102378.03
2023-04-19T21:21:56.084Z,102377.00
2023-04-19T21:24:22.636Z,102381.84
2023-04-19T21:26:49.059Z,102365.03
2023-04-19T21:29:15.874Z,102365.47
2023-04-19T21:31:42.553Z,102372.00
2023-04-19T21:34:08.990Z,102381.22
2023-04-19T21:36:35.449Z,102354.06
2023-04-19T21:39:01.826Z,102358.09
2023-04-19T21:41:28.248Z,102354.91
2023-04-19T21:43:54.717Z,102350.88
2023-04-19T21:46:21.278Z,102344.63
2023-04-19T21:48:47.768Z,102352.81
2023-04-19T21:51:14.176Z,102365.47
2023-04-19T21:53:40.740Z,102364.31
2023-04-19T21:56:08.454Z,102356.22
2023-04-19T21:58:34.946Z,102345.16
2023-04-19T22:01:01.375Z,102350.09
2023-04-19T22:03:28.126Z,102338.31
2023-04-19T22:05:54.681Z,102340.38
2023-04-19T22:08:22.055Z,102334.97
2023-04-19T22:10:50.418Z,102332.00
2023-04-19T22:13:17.636Z,102326.84
2023-04-19T22:15:44.041Z,102319.38
2023-04-19T22:18:10.495Z,102324.59
2023-04-19T22:20:38.336Z,102328.16
2023-04-19T22:23:04.976Z,102301.13
2023-04-19T22:25:31.381Z,102300.19
2023-04-19T22:27:57.836Z,102295.22
2023-04-19T22:30:24.282Z,102275.31
2023-04-19T22:32:51.065Z,102274.34
2023-04-19T22:35:17.553Z,102277.72
2023-04-19T22:37:44.015Z,102262.78
2023-04-19T22:40:10.954Z,102262.41
2023-04-19T22:42:37.402Z,102250.72
2023-04-19T22:45:04.070Z,102247.00
2023-04-19T22:47:31.309Z,102248.09
2023-04-19T22:49:57.711Z,102236.69
2023-04-19T22:52:24.255Z,102223.81
2023-04-19T22:54:50.764Z,102228.22
2023-04-19T22:57:17.150Z,102222.00
2023-04-19T22:59:43.557Z,102220.63
2023-04-19T23:02:10.520Z,102220.53
2023-04-19T23:04:37.900Z,102216.41
2023-04-19T23:07:04.477Z,102218.25
2023-04-19T23:09:30.859Z,102210.56
2023-04-19T23:11:58.624Z,102192.16
2023-04-19T23:14:25.049Z,102201.38
2023-04-19T23:16:54.666Z,102196.91
2023-04-19T23:19:22.754Z,102200.84
2023-04-19T23:21:50.025Z,102192.97
2023-04-19T23:24:17.408Z,102201.31
2023-04-19T23:26:43.936Z,102197.31
2023-04-19T23:29:10.522Z,102185.03
2023-04-19T23:31:37.106Z,102185.25
2023-04-19T23:34:03.584Z,102193.25
2023-04-19T23:36:30.051Z,102195.94
2023-04-19T23:38:56.551Z,102187.28
2023-04-19T23:41:22.949Z,102208.75
2023-04-19T23:43:49.499Z,102191.25
2023-04-19T23:46:15.929Z,102171.34
2023-04-19T23:48:42.438Z,102191.47
2023-04-19T23:51:08.943Z,102186.28
2023-04-19T23:53:35.955Z,102182.91
2023-04-19T23:56:02.329Z,102178.22
2023-04-19T23:58:28.792Z,102174.84
